createdAt,value
2022-08-17T00:00:42.900Z,22.88
2022-08-17T00:03:10.672Z,26.83
2022-08-17T00:05:43.801Z,29.95
2022-08-17T00:08:12.838Z,22.90
2022-08-17T00:10:41.483Z,27.35
2022-08-17T00:13:17.526Z,26.90
2022-08-17T00:15:46.912Z,33.90
2022-08-17T00:19:02.109Z,26.60
2022-08-17T00:21:10.499Z,24.08
2022-08-17T00:23:46.207Z,28.00
2022-08-17T00:26:44.598Z,24.95
2022-08-17T00:29:09.877Z,27.88
2022-08-17T00:31:48.465Z,28.83
2022-08-17T00:34:17.097Z,27.10
2022-08-17T00:36:45.541Z,26.13
2022-08-17T00:39:14.102Z,28.23
2022-08-17T00:41:42.877Z,25.60
2022-08-17T00:44:12.927Z,27.05
2022-08-17T00:46:43.719Z,24.00
2022-08-17T00:49:14.536Z,24.92
2022-08-17T00:51:47.282Z,25.33
2022-08-17T00:54:21.625Z,25.58
2022-08-17T00:56:54.489Z,24.23
2022-08-17T00:59:28.016Z,25.15
2022-08-17T01:01:56.473Z,25.02
2022-08-17T01:04:26.145Z,23.88
2022-08-17T01:06:54.895Z,26.38
2022-08-17T01:09:23.615Z,24.05
2022-08-17T01:11:53.061Z,25.88
2022-08-17T01:14:23.530Z,26.02
2022-08-17T01:16:55.235Z,23.80
2022-08-17T01:19:28.846Z,25.90
2022-08-17T01:22:06.780Z,26.10
2022-08-17T01:24:37.241Z,26.50
2022-08-17T01:27:10.276Z,28.60
2022-08-17T01:29:42.424Z,21.65
2022-08-17T01:32:11.316Z,22.13
2022-08-17T01:34:43.704Z,24.33
2022-08-17T01:37:20.794Z,22.15
2022-08-17T01:39:55.264Z,21.63
2022-08-17T01:42:27.758Z,24.42
2022-08-17T01:44:58.983Z,23.80
2022-08-17T01:47:27.460Z,21.90
2022-08-17T01:49:58.304Z,19.67
2022-08-17T01:52:26.861Z,21.40
2022-08-17T01:54:57.459Z,21.08
2022-08-17T01:57:25.968Z,20.92
2022-08-17T01:59:54.424Z,23.23
2022-08-17T02:02:30.793Z,20.30
2022-08-17T02:05:00.881Z,20.33
2022-08-17T02:07:31.120Z,20.42
2022-08-17T02:10:00.934Z,18.85
2022-08-17T02:12:38.557Z,22.33
2022-08-17T02:15:12.494Z,19.27
2022-08-17T02:17:41.721Z,22.15
2022-08-17T02:20:11.802Z,21.08
2022-08-17T02:22:43.601Z,22.20
2022-08-17T02:25:16.331Z,21.30
2022-08-17T02:27:45.065Z,19.08
2022-08-17T02:30:59.224Z,20.23
2022-08-17T02:33:06.365Z,21.45
2022-08-17T02:35:38.433Z,19.73
2022-08-17T02:38:08.074Z,25.80
2022-08-17T02:40:40.691Z,22.23
2022-08-17T02:43:10.142Z,24.48
2022-08-17T02:45:38.656Z,21.05
2022-08-17T02:48:07.399Z,23.02
2022-08-17T02:50:35.858Z,26.70
2022-08-17T02:53:05.304Z,22.75
2022-08-17T02:55:35.404Z,27.27
2022-08-17T02:58:05.931Z,24.25
2022-08-17T03:00:37.952Z,23.17
2022-08-17T03:03:08.112Z,24.65
2022-08-17T03:05:38.686Z,30.00
2022-08-17T03:08:13.149Z,29.05
2022-08-17T03:10:41.960Z,26.20
2022-08-17T03:13:15.786Z,28.90
2022-08-17T03:15:46.247Z,31.45
2022-08-17T03:18:18.938Z,26.02
2022-08-17T03:20:54.532Z,20.98
2022-08-17T03:23:24.267Z,22.80
2022-08-17T03:25:54.582Z,29.45
2022-08-17T03:28:25.358Z,27.42
2022-08-17T03:30:53.994Z,24.70
2022-08-17T03:33:23.242Z,23.80
2022-08-17T03:35:52.095Z,22.70
2022-08-17T03:38:21.379Z,24.52
2022-08-17T03:40:58.989Z,22.20
2022-08-17T03:43:31.962Z,25.42
2022-08-17T03:46:34.303Z,26.88
2022-08-17T03:49:22.688Z,24.38
2022-08-17T03:52:08.726Z,24.52
2022-08-17T03:54:55.741Z,22.42
2022-08-17T03:57:25.111Z,24.30
2022-08-17T03:59:56.186Z,22.95
2022-08-17T04:02:28.050Z,19.92
2022-08-17T04:04:57.199Z,19.67
2022-08-17T04:07:27.605Z,25.70
2022-08-17T04:09:58.135Z,21.75
2022-08-17T04:12:30.949Z,23.50
2022-08-17T04:15:01.154Z,17.75
2022-08-17T04:17:31.945Z,17.60
2022-08-17T04:20:00.424Z,17.55
2022-08-17T04:22:30.189Z,17.80
2022-08-17T04:25:00.716Z,18.63
2022-08-17T04:27:29.288Z,22.52
2022-08-17T04:29:58.686Z,16.20
2022-08-17T04:33:00.469Z,14.15
2022-08-17T04:35:20.820Z,14.52
2022-08-17T04:37:49.311Z,16.77
2022-08-17T04:40:36.512Z,16.58
2022-08-17T04:43:08.786Z,17.73
2022-08-17T04:45:40.627Z,20.92
2022-08-17T04:48:29.762Z,17.83
2022-08-17T04:51:06.445Z,19.13
2022-08-17T04:53:34.959Z,24.02
2022-08-17T04:56:03.714Z,17.33
2022-08-17T04:58:32.182Z,20.50
2022-08-17T05:01:01.555Z,23.73
2022-08-17T05:03:32.080Z,19.48
2022-08-17T05:06:00.683Z,26.38
2022-08-17T05:08:29.214Z,20.45
2022-08-17T05:10:57.660Z,25.90
2022-08-17T05:13:29.297Z,21.08
2022-08-17T05:16:00.368Z,19.80
2022-08-17T05:18:31.570Z,17.83
2022-08-17T05:21:00.175Z,20.85
2022-08-17T05:23:42.086Z,19.58
2022-08-17T05:26:25.460Z,18.05
2022-08-17T05:28:57.148Z,14.38
2022-08-17T05:31:29.743Z,13.88
2022-08-17T05:34:00.020Z,11.07
2022-08-17T05:36:42.048Z,16.10
2022-08-17T05:39:15.817Z,17.15
2022-08-17T05:41:48.761Z,18.42
2022-08-17T05:44:17.892Z,15.25
2022-08-17T05:46:51.300Z,19.95
2022-08-17T05:49:28.208Z,10.88
2022-08-17T05:52:21.863Z,13.35
2022-08-17T05:55:04.343Z,13.77
2022-08-17T05:57:47.680Z,15.65
2022-08-17T06:00:30.140Z,14.40
2022-08-17T06:03:17.039Z,14.38
2022-08-17T06:05:56.113Z,12.40
2022-08-17T06:08:34.111Z,13.43
2022-08-17T06:11:14.891Z,17.58
2022-08-17T06:13:57.583Z,13.18
2022-08-17T06:16:33.411Z,12.98
2022-08-17T06:19:07.811Z,18.48
2022-08-17T06:21:43.737Z,14.48
2022-08-17T06:24:28.611Z,18.67
2022-08-17T06:27:02.556Z,20.25
2022-08-17T06:29:39.912Z,16.98
2022-08-17T06:32:12.829Z,18.05
2022-08-17T06:34:45.286Z,12.05
2022-08-17T06:37:33.435Z,15.35
2022-08-17T06:40:19.859Z,13.23
2022-08-17T06:43:13.484Z,18.80
2022-08-17T06:45:49.508Z,15.25
2022-08-17T06:48:26.272Z,13.45
2022-08-17T06:51:00.267Z,17.83
2022-08-17T06:53:37.475Z,16.83
2022-08-17T06:56:10.347Z,15.90
2022-08-17T06:58:41.292Z,14.45
2022-08-17T07:01:15.577Z,12.70
2022-08-17T07:03:54.669Z,12.55
2022-08-17T07:06:28.242Z,12.35
2022-08-17T07:09:02.658Z,14.65
2022-08-17T07:11:37.774Z,18.65
2022-08-17T07:14:20.124Z,14.35
2022-08-17T07:16:51.765Z,16.52
2022-08-17T07:19:23.649Z,13.38
2022-08-17T07:21:57.348Z,15.68
2022-08-17T07:24:41.578Z,14.85
2022-08-17T07:27:13.801Z,13.93
2022-08-17T07:29:47.844Z,17.38
2022-08-17T07:32:19.534Z,18.80
2022-08-17T07:35:15.198Z,20.55
2022-08-17T07:37:46.753Z,16.33
2022-08-17T07:40:35.431Z,17.35
2022-08-17T07:43:22.233Z,18.48
2022-08-17T07:46:14.163Z,19.23
2022-08-17T07:48:44.678Z,20.02
2022-08-17T07:51:21.895Z,15.90
2022-08-17T07:53:50.719Z,17.70
2022-08-17T07:56:40.523Z,12.10
2022-08-17T07:59:15.750Z,18.92
2022-08-17T08:01:48.785Z,16.88
2022-08-17T08:04:59.043Z,13.40
2022-08-17T08:07:27.191Z,13.98
2022-08-17T08:10:06.116Z,13.73
2022-08-17T08:12:38.167Z,14.25
2022-08-17T08:15:18.949Z,13.25
2022-08-17T08:17:51.516Z,12.57
2022-08-17T08:20:51.338Z,15.40
2022-08-17T08:23:19.489Z,15.68
2022-08-17T08:26:05.279Z,14.57
2022-08-17T08:28:44.286Z,17.40
2022-08-17T08:31:25.339Z,16.73
2022-08-17T08:34:04.125Z,16.67
2022-08-17T08:37:14.574Z,13.30
2022-08-17T08:39:48.500Z,14.00
2022-08-17T08:42:25.818Z,13.48
2022-08-17T08:45:04.792Z,15.25
2022-08-17T08:47:52.562Z,12.45
2022-08-17T08:50:37.415Z,15.07
2022-08-17T08:53:27.498Z,11.48
2022-08-17T08:56:01.482Z,13.40
2022-08-17T08:58:42.068Z,15.88
2022-08-17T09:01:20.134Z,15.43
2022-08-17T09:04:24.787Z,14.45
2022-08-17T09:07:10.150Z,14.23
2022-08-17T09:09:48.246Z,11.50
2022-08-17T09:12:26.684Z,13.88
2022-08-17T09:15:02.860Z,11.98
2022-08-17T09:17:40.304Z,16.25
2022-08-17T09:20:18.022Z,13.60
2022-08-17T09:23:04.070Z,10.13
2022-08-17T09:25:39.643Z,15.02
2022-08-17T09:28:13.449Z,9.43
2022-08-17T09:30:47.566Z,9.93
2022-08-17T09:33:23.127Z,12.00
2022-08-17T09:35:57.406Z,13.25
2022-08-17T09:38:33.310Z,9.85
2022-08-17T09:41:13.528Z,9.00
2022-08-17T09:43:47.885Z,12.35
2022-08-17T09:46:20.879Z,11.18
2022-08-17T09:48:58.683Z,10.93
2022-08-17T09:51:33.591Z,11.73
2022-08-17T09:54:34.902Z,11.65
2022-08-17T09:57:27.969Z,16.73
2022-08-17T10:00:11.833Z,14.90
2022-08-17T10:03:05.753Z,11.35
2022-08-17T10:05:46.694Z,13.57
2022-08-17T10:08:25.703Z,10.10
2022-08-17T10:11:07.053Z,10.00
2022-08-17T10:13:47.195Z,9.43
2022-08-17T10:16:28.471Z,9.27
2022-08-17T10:19:06.355Z,10.63
2022-08-17T10:22:00.775Z,9.07
2022-08-17T10:25:01.886Z,9.40
2022-08-17T10:27:48.862Z,15.05
2022-08-17T10:30:19.949Z,14.13
2022-08-17T10:32:55.110Z,12.00
2022-08-17T10:35:39.360Z,9.50
2022-08-17T10:38:31.203Z,9.50
2022-08-17T10:41:05.906Z,13.35
2022-08-17T10:44:02.204Z,10.90
2022-08-17T10:46:58.871Z,10.52
2022-08-17T10:49:32.759Z,9.20
2022-08-17T10:52:03.683Z,9.40
2022-08-17T10:54:48.337Z,9.18
2022-08-17T10:57:39.386Z,10.02
2022-08-17T11:00:16.078Z,9.07
2022-08-17T11:02:50.959Z,14.20
2022-08-17T11:05:45.461Z,9.52
2022-08-17T11:08:50.344Z,9.48
2022-08-17T11:11:50.018Z,8.32
2022-08-17T11:14:44.249Z,11.68
2022-08-17T11:17:42.174Z,10.50
2022-08-17T11:20:35.221Z,9.23
2022-08-17T11:23:32.892Z,12.85
2022-08-17T11:26:08.640Z,9.93
2022-08-17T11:28:50.372Z,10.88
2022-08-17T11:31:38.574Z,9.63
2022-08-17T11:34:15.272Z,13.45
2022-08-17T11:37:13.040Z,9.57
2022-08-17T11:40:06.728Z,10.13
2022-08-17T11:42:48.639Z,8.73
2022-08-17T11:45:39.653Z,9.90
2022-08-17T11:48:38.763Z,8.77
2022-08-17T11:51:35.306Z,8.80
2022-08-17T11:54:31.572Z,8.43
2022-08-17T11:57:00.142Z,10.13
2022-08-17T11:59:59.046Z,11.60
2022-08-17T12:02:47.830Z,7.68
2022-08-17T12:05:35.216Z,7.63
2022-08-17T12:08:16.031Z,8.85
2022-08-17T12:10:59.232Z,8.32
2022-08-17T12:13:38.628Z,9.60
2022-08-17T12:16:10.109Z,8.30
2022-08-17T12:18:42.266Z,7.68
2022-08-17T12:21:22.343Z,7.70
2022-08-17T12:23:58.230Z,7.72
2022-08-17T12:26:31.215Z,7.65
2022-08-17T12:29:03.051Z,12.25
2022-08-17T12:31:36.541Z,7.95
2022-08-17T12:34:06.166Z,10.35
2022-08-17T12:36:36.929Z,9.38
2022-08-17T12:39:14.128Z,9.05
2022-08-17T12:41:52.597Z,9.63
2022-08-17T12:44:23.647Z,9.60
2022-08-17T12:46:59.860Z,10.45
2022-08-17T12:49:32.342Z,9.07
2022-08-17T12:52:27.823Z,10.55
2022-08-17T12:55:00.611Z,10.43
2022-08-17T12:57:33.705Z,9.93
2022-08-17T13:00:10.473Z,10.77
2022-08-17T13:02:45.497Z,10.20
2022-08-17T13:05:22.706Z,11.82
2022-08-17T13:07:54.676Z,11.43
2022-08-17T13:10:32.137Z,9.88
2022-08-17T13:13:06.018Z,9.38
2022-08-17T13:15:38.673Z,10.68
2022-08-17T13:18:39.647Z,11.27
2022-08-17T13:21:13.237Z,9.55
2022-08-17T13:23:48.829Z,10.23
2022-08-17T13:26:29.614Z,12.05
2022-08-17T13:28:58.509Z,10.93
2022-08-17T13:31:44.073Z,11.75
2022-08-17T13:34:45.728Z,10.02
2022-08-17T13:37:32.788Z,10.40
2022-08-17T13:40:20.808Z,8.95
2022-08-17T13:42:54.026Z,8.15
2022-08-17T13:45:50.430Z,10.07
2022-08-17T13:48:29.192Z,10.05
2022-08-17T13:51:12.386Z,9.02
2022-08-17T13:53:55.236Z,8.75
2022-08-17T13:56:46.449Z,10.48
2022-08-17T13:59:18.080Z,10.80
2022-08-17T14:02:07.513Z,8.27
2022-08-17T14:04:36.583Z,9.32
2022-08-17T14:07:28.275Z,10.02
2022-08-17T14:10:00.869Z,8.93
2022-08-17T14:12:33.290Z,9.80
2022-08-17T14:15:02.236Z,9.77
2022-08-17T14:17:36.575Z,11.07
2022-08-17T14:20:09.318Z,8.63
2022-08-17T14:22:40.799Z,9.45
2022-08-17T14:25:10.608Z,9.23
2022-08-17T14:27:52.336Z,9.45
2022-08-17T14:30:24.630Z,8.43
2022-08-17T14:32:54.610Z,10.07
2022-08-17T14:35:24.518Z,8.65
2022-08-17T14:37:53.815Z,8.27
2022-08-17T14:40:25.070Z,7.80
2022-08-17T14:42:57.746Z,7.68
2022-08-17T14:45:31.874Z,8.65
2022-08-17T14:48:05.819Z,8.05
2022-08-17T14:50:35.745Z,10.80
2022-08-17T14:53:06.055Z,8.75
2022-08-17T14:55:34.667Z,7.30
2022-08-17T14:58:05.134Z,7.25
2022-08-17T15:00:33.920Z,9.52
2022-08-17T15:03:03.614Z,7.50
2022-08-17T15:05:36.769Z,7.63
2022-08-17T15:19:47.499Z,13.60
2022-08-17T15:42:45.959Z,10.85
2022-08-17T15:45:16.743Z,9.38
2022-08-17T15:52:27.304Z,8.70
2022-08-17T15:54:57.716Z,8.50
2022-08-17T15:57:27.123Z,8.90
2022-08-17T16:16:22.433Z,9.23
2022-08-17T16:18:54.711Z,8.82
2022-08-17T16:21:27.612Z,8.68
2022-08-17T16:28:17.306Z,10.43
2022-08-17T16:41:58.711Z,8.57
2022-08-17T16:44:31.800Z,13.23
2022-08-17T16:47:01.354Z,10.00
2022-08-17T17:02:05.386Z,12.63
2022-08-17T17:04:36.591Z,8.40
2022-08-17T17:07:12.878Z,10.38
2022-08-17T17:09:42.128Z,11.30
2022-08-17T17:12:19.717Z,10.30
2022-08-17T17:15:09.688Z,9.43
2022-08-17T17:17:41.071Z,11.02
2022-08-17T17:20:14.766Z,10.48
2022-08-17T17:22:49.551Z,11.63
2022-08-17T17:41:38.092Z,11.70
2022-08-17T17:44:26.984Z,10.93
2022-08-17T17:50:07.416Z,12.10
2022-08-17T17:52:47.511Z,12.07
2022-08-17T17:55:29.818Z,15.68
2022-08-17T18:02:51.267Z,21.77
2022-08-17T18:05:44.534Z,18.77
2022-08-17T18:08:39.091Z,17.00
2022-08-17T18:11:24.594Z,20.15
2022-08-17T18:14:14.760Z,25.45
2022-08-17T18:16:43.823Z,20.83
2022-08-17T18:19:16.326Z,17.88
2022-08-17T18:21:50.142Z,23.42
2022-08-17T18:24:30.466Z,24.80
2022-08-17T18:27:01.304Z,33.03
2022-08-17T18:29:38.164Z,26.98
2022-08-17T18:32:37.620Z,26.90
2022-08-17T18:35:30.916Z,21.23
2022-08-17T18:38:20.382Z,19.13
2022-08-17T18:41:02.436Z,17.42
2022-08-17T18:43:44.510Z,12.75
2022-08-17T18:46:29.819Z,12.35
2022-08-17T18:49:01.719Z,12.77
2022-08-17T18:51:42.426Z,11.30
2022-08-17T18:54:18.891Z,14.20
2022-08-17T18:56:52.312Z,14.90
2022-08-17T18:59:28.314Z,15.15
2022-08-17T19:02:34.603Z,14.57
2022-08-17T19:05:13.671Z,12.07
2022-08-17T19:07:46.449Z,15.30
2022-08-17T19:10:23.925Z,13.23
2022-08-17T19:13:00.792Z,16.13
2022-08-17T19:15:39.022Z,16.20
2022-08-17T19:18:18.521Z,17.23
2022-08-17T19:20:53.231Z,21.35
2022-08-17T19:23:28.061Z,22.15
2022-08-17T19:26:01.835Z,21.42
2022-08-17T19:28:37.981Z,12.07
2022-08-17T19:31:14.189Z,17.90
2022-08-17T19:33:43.335Z,23.83
2022-08-17T19:36:37.062Z,30.83
2022-08-17T19:39:16.531Z,37.67
2022-08-17T19:41:51.625Z,30.88
2022-08-17T19:44:36.942Z,44.47
2022-08-17T19:47:19.552Z,39.65
2022-08-17T19:50:04.135Z,28.27
2022-08-17T19:52:44.819Z,25.65
2022-08-17T19:55:25.207Z,29.13
2022-08-17T19:58:06.231Z,24.02
2022-08-17T20:00:40.355Z,19.17
2022-08-17T20:03:16.667Z,17.77
2022-08-17T20:06:11.368Z,20.88
2022-08-17T20:08:41.977Z,18.92
2022-08-17T20:11:16.629Z,20.52
2022-08-17T20:13:51.089Z,24.15
2022-08-17T20:16:21.361Z,20.13
2022-08-17T20:18:56.496Z,17.88
2022-08-17T20:21:32.801Z,19.80
2022-08-17T20:24:06.623Z,16.25
2022-08-17T20:26:51.238Z,19.48
2022-08-17T20:30:02.482Z,15.07
2022-08-17T20:32:36.419Z,13.07
2022-08-17T20:35:21.123Z,13.45
2022-08-17T20:37:56.497Z,14.07
2022-08-17T20:40:31.536Z,13.68
2022-08-17T20:43:39.502Z,13.55
2022-08-17T20:46:28.236Z,15.85
2022-08-17T20:49:01.104Z,14.32
2022-08-17T20:51:34.844Z,16.33
2022-08-17T20:54:31.465Z,17.90
2022-08-17T20:57:02.304Z,15.15
2022-08-17T21:00:03.403Z,16.27
2022-08-17T21:02:33.449Z,14.50
2022-08-17T21:05:27.629Z,16.80
2022-08-17T21:08:02.393Z,15.88
2022-08-17T21:10:38.799Z,14.52
2022-08-17T21:14:09.239Z,14.00
2022-08-17T21:17:01.863Z,14.90
2022-08-17T21:20:09.849Z,18.00
2022-08-17T21:22:44.093Z,14.20
2022-08-17T21:25:28.147Z,15.60
2022-08-17T21:28:08.697Z,14.40
2022-08-17T21:30:51.776Z,19.25
2022-08-17T21:33:32.682Z,17.35
2022-08-17T21:36:24.860Z,14.65
2022-08-17T21:39:03.128Z,19.05
2022-08-17T21:41:34.743Z,20.27
2022-08-17T21:44:12.075Z,17.83
2022-08-17T21:46:46.730Z,17.17
2022-08-17T21:49:20.246Z,16.50
2022-08-17T21:51:53.829Z,19.42
2022-08-17T21:54:30.982Z,18.58
2022-08-17T21:57:02.537Z,19.58
2022-08-17T21:59:34.715Z,20.08
2022-08-17T22:02:06.255Z,22.73
2022-08-17T22:04:38.293Z,18.58
2022-08-17T22:07:10.835Z,25.20
2022-08-17T22:09:44.108Z,18.30
2022-08-17T22:12:16.760Z,21.17
2022-08-17T22:14:52.218Z,20.65
2022-08-17T22:17:25.983Z,21.67
2022-08-17T22:19:59.539Z,29.10
2022-08-17T22:22:32.887Z,23.23
2022-08-17T22:25:04.302Z,25.48
2022-08-17T22:27:48.741Z,22.52
2022-08-17T22:30:26.340Z,26.55
2022-08-17T22:32:55.994Z,26.20
2022-08-17T22:35:38.823Z,25.23
2022-08-17T22:38:35.645Z,23.52
2022-08-17T22:41:42.583Z,21.85
2022-08-17T22:44:17.365Z,24.25
2022-08-17T22:47:11.304Z,25.50
2022-08-17T22:49:53.133Z,21.88
2022-08-17T22:52:35.991Z,28.27
2022-08-17T22:55:31.053Z,22.70
2022-08-17T22:58:17.599Z,26.17
2022-08-17T23:00:48.641Z,24.92
2022-08-17T23:03:22.335Z,29.38
2022-08-17T23:06:05.125Z,23.30
2022-08-17T23:08:37.176Z,24.55
2022-08-17T23:11:07.602Z,24.55
2022-08-17T23:13:38.117Z,26.95
2022-08-17T23:16:06.667Z,23.33
2022-08-17T23:18:35.609Z,23.63
2022-08-17T23:21:05.175Z,28.73
2022-08-17T23:23:35.651Z,27.38
2022-08-17T23:26:04.293Z,26.50
2022-08-17T23:28:37.592Z,29.75
2022-08-17T23:31:06.570Z,24.63
2022-08-17T23:33:35.671Z,30.13
2022-08-17T23:36:04.345Z,29.42
2022-08-17T23:38:34.374Z,29.83
2022-08-17T23:41:08.912Z,27.52
2022-08-17T23:43:37.519Z,24.92
2022-08-17T23:46:07.394Z,28.80
2022-08-17T23:48:37.431Z,23.27
2022-08-17T23:51:09.843Z,31.00
2022-08-17T23:53:46.545Z,30.40
2022-08-17T23:56:15.218Z,31.02
2022-08-17T23:58:45.302Z,29.48
